createdAt,value
2022-12-04T04:50:31.672Z,0.30
2022-12-04T04:53:04.361Z,0.30
2022-12-04T04:55:36.357Z,0.40
2022-12-04T04:58:10.039Z,0.30
2022-12-04T05:00:39.106Z,0.30
2022-12-04T05:03:08.033Z,0.30
2022-12-04T05:05:38.424Z,0.30
2022-12-04T05:08:07.472Z,0.30
2022-12-04T05:10:36.637Z,0.30
2022-12-04T05:13:05.064Z,0.30
2022-12-04T05:15:33.617Z,0.30
2022-12-04T05:18:02.368Z,0.30
2022-12-04T05:20:29.940Z,0.30
2022-12-04T05:23:00.033Z,0.30
2022-12-04T05:25:28.811Z,0.30
2022-12-04T05:27:57.278Z,0.30
2022-12-04T05:30:25.854Z,0.30
2022-12-04T05:32:54.251Z,0.30
2022-12-04T05:35:23.088Z,0.40
2022-12-04T05:37:51.593Z,0.40
2022-12-04T05:40:21.953Z,0.40
2022-12-04T05:42:50.483Z,0.40
2022-12-04T05:45:19.317Z,0.40
2022-12-04T05:47:49.042Z,0.40
2022-12-04T05:50:17.437Z,0.40
2022-12-04T05:52:45.895Z,0.40
2022-12-04T05:55:14.341Z,0.40
2022-12-04T05:57:44.600Z,0.40
2022-12-04T06:00:14.588Z,0.30
2022-12-04T06:02:43.441Z,0.40
2022-12-04T06:05:11.975Z,0.40
2022-12-04T06:07:40.683Z,0.40
2022-12-04T06:10:09.433Z,0.40
2022-12-04T06:12:37.938Z,0.40
2022-12-04T06:15:08.731Z,0.40
2022-12-04T06:17:37.178Z,0.40
2022-12-04T06:20:11.266Z,0.40
2022-12-04T06:22:40.776Z,0.40
2022-12-04T06:25:09.983Z,0.40
2022-12-04T06:27:38.551Z,0.40
2022-12-04T06:30:10.953Z,0.40
2022-12-04T06:32:39.434Z,0.50
2022-12-04T06:35:08.435Z,0.50
2022-12-04T06:37:37.085Z,0.50
2022-12-04T06:40:07.527Z,0.40
2022-12-04T06:42:36.129Z,0.40
2022-12-04T06:45:04.874Z,0.50
2022-12-04T06:47:36.274Z,0.50
2022-12-04T06:50:05.741Z,0.50
2022-12-04T06:52:35.045Z,0.50
2022-12-04T06:55:03.577Z,0.50
2022-12-04T06:57:32.359Z,0.50
2022-12-04T07:00:00.860Z,0.50
2022-12-04T07:02:29.403Z,0.50
2022-12-04T07:04:59.295Z,0.50
2022-12-04T07:07:28.011Z,0.50
2022-12-04T07:09:56.799Z,0.50
2022-12-04T07:12:25.467Z,0.50
2022-12-04T07:14:54.476Z,0.60
2022-12-04T07:17:22.825Z,0.50
2022-12-04T07:19:51.518Z,0.60
2022-12-04T07:22:22.482Z,0.60
2022-12-04T07:24:51.042Z,0.60
2022-12-04T07:27:20.284Z,0.60
2022-12-04T07:29:48.982Z,0.60
2022-12-04T07:32:17.519Z,0.60
2022-12-04T07:34:48.332Z,0.60
2022-12-04T07:37:17.043Z,0.60
2022-12-04T07:39:47.003Z,0.60
2022-12-04T07:42:18.464Z,0.60
2022-12-04T07:44:51.012Z,0.30
2022-12-04T07:47:19.847Z,0.60
2022-12-04T07:49:48.318Z,0.60
2022-12-04T07:52:17.438Z,0.70
2022-12-04T07:54:47.447Z,0.70
2022-12-04T07:57:15.905Z,0.70
2022-12-04T07:59:44.431Z,0.70
2022-12-04T08:02:14.002Z,0.70
2022-12-04T08:04:43.757Z,0.70
2022-12-04T08:07:12.350Z,0.70
2022-12-04T08:09:40.925Z,0.70
2022-12-04T08:12:11.699Z,0.70
2022-12-04T08:14:41.894Z,0.70
2022-12-04T08:17:10.727Z,0.70
2022-12-04T08:19:39.364Z,0.80
2022-12-04T08:22:09.725Z,0.80
2022-12-04T08:24:38.492Z,0.80
2022-12-04T08:27:07.121Z,0.80
2022-12-04T08:29:37.910Z,0.80
2022-12-04T08:32:06.921Z,0.80
2022-12-04T08:34:35.820Z,0.80
2022-12-04T08:37:04.410Z,0.80
2022-12-04T08:39:32.938Z,0.80
2022-12-04T08:42:01.493Z,0.80
2022-12-04T08:44:29.945Z,0.80
2022-12-04T08:46:59.842Z,0.90
2022-12-04T08:49:29.005Z,0.90
2022-12-04T08:51:58.162Z,-0.10
2022-12-04T08:54:28.517Z,0.90
2022-12-04T08:57:00.367Z,0.90
2022-12-04T08:59:28.832Z,0.90
2022-12-04T09:01:57.447Z,0.90
2022-12-04T09:04:27.818Z,0.90
2022-12-04T09:06:56.500Z,1.00
2022-12-04T09:09:25.345Z,1.00
2022-12-04T09:11:54.273Z,1.00
2022-12-04T09:14:26.068Z,1.00
2022-12-04T09:16:54.615Z,1.00
2022-12-04T09:19:31.452Z,1.00
2022-12-04T09:21:59.866Z,1.00
2022-12-04T09:24:31.596Z,1.00
2022-12-04T09:27:00.024Z,1.10
2022-12-04T09:29:28.448Z,1.10
2022-12-04T09:31:57.226Z,1.10
2022-12-04T09:34:26.297Z,1.00
2022-12-04T09:36:56.196Z,1.00
2022-12-04T09:39:24.687Z,1.00
2022-12-04T09:42:09.798Z,1.00
2022-12-04T09:44:42.929Z,1.00
2022-12-04T09:47:21.183Z,1.00
2022-12-04T09:49:54.632Z,1.10
2022-12-04T09:52:35.600Z,1.10
2022-12-04T09:55:06.824Z,1.00
2022-12-04T09:57:39.747Z,1.00
2022-12-04T10:00:13.918Z,1.00
2022-12-04T10:02:44.051Z,1.10
2022-12-04T10:05:20.088Z,1.10
2022-12-04T10:07:56.839Z,1.10
2022-12-04T10:10:34.077Z,1.20
2022-12-04T10:13:14.363Z,1.90
2022-12-04T10:15:51.133Z,1.20
2022-12-04T10:18:37.138Z,1.20
2022-12-04T10:21:25.939Z,1.20
2022-12-04T10:24:09.112Z,1.20
2022-12-04T10:26:43.191Z,1.20
2022-12-04T10:29:20.983Z,1.30
2022-12-04T10:31:51.168Z,1.30
2022-12-04T10:34:25.798Z,1.40
2022-12-04T10:36:57.052Z,1.40
2022-12-04T10:39:32.340Z,1.30
2022-12-04T10:42:05.093Z,1.30
2022-12-04T10:44:34.089Z,1.30
2022-12-04T10:47:06.374Z,1.40
2022-12-04T10:49:37.621Z,1.40
2022-12-04T10:52:10.073Z,1.40
2022-12-04T10:54:48.207Z,1.50
2022-12-04T10:57:18.137Z,1.50
2022-12-04T10:59:55.271Z,1.50
2022-12-04T11:02:27.887Z,1.40
2022-12-04T11:04:58.634Z,1.50
2022-12-04T11:07:29.957Z,1.40
2022-12-04T11:10:04.432Z,1.40
2022-12-04T11:12:33.467Z,1.40
2022-12-04T11:15:13.674Z,1.40
2022-12-04T11:17:42.436Z,1.40
2022-12-04T11:20:20.005Z,1.40
2022-12-04T11:22:52.969Z,1.40
2022-12-04T11:25:25.139Z,1.50
2022-12-04T11:27:56.256Z,1.50
2022-12-04T11:30:30.344Z,2.30
2022-12-04T11:32:59.802Z,1.60
2022-12-04T11:35:30.132Z,1.60
2022-12-04T11:38:08.584Z,1.60
2022-12-04T11:40:38.938Z,1.60
2022-12-04T11:43:15.238Z,1.70
2022-12-04T11:45:54.729Z,1.70
2022-12-04T11:48:23.761Z,1.60
2022-12-04T11:51:01.382Z,1.70
2022-12-04T11:53:43.324Z,1.70
2022-12-04T11:56:28.062Z,1.70
2022-12-04T11:59:20.386Z,1.70
2022-12-04T12:01:57.949Z,1.80
2022-12-04T12:04:55.991Z,1.70
2022-12-04T12:07:39.096Z,1.70
2022-12-04T12:10:15.023Z,1.70
2022-12-04T12:12:56.874Z,1.80
2022-12-04T12:15:36.021Z,1.80
2022-12-04T12:18:36.007Z,1.80
2022-12-04T12:21:09.914Z,1.80
2022-12-04T12:23:56.139Z,1.90
2022-12-04T12:26:32.126Z,1.80
2022-12-04T12:29:12.788Z,1.90
2022-12-04T12:32:01.290Z,1.90
2022-12-04T12:34:37.760Z,1.90
2022-12-04T12:37:15.969Z,1.90
2022-12-04T12:39:51.206Z,1.90
2022-12-04T12:42:27.117Z,1.90
2022-12-04T12:45:03.850Z,1.90
2022-12-04T12:47:39.363Z,1.90
2022-12-04T12:50:15.042Z,1.90
2022-12-04T12:52:49.158Z,1.90
2022-12-04T12:55:22.270Z,3.00
2022-12-04T12:57:59.418Z,1.90
2022-12-04T13:00:33.390Z,1.90
2022-12-04T13:03:05.241Z,1.90
2022-12-04T13:05:39.115Z,2.00
2022-12-04T13:08:17.811Z,2.00
2022-12-04T13:10:55.046Z,2.00
2022-12-04T13:13:28.004Z,2.00
2022-12-04T13:16:04.453Z,2.10
2022-12-04T13:18:39.909Z,2.10
2022-12-04T13:21:10.137Z,2.00
2022-12-04T13:23:59.090Z,2.10
2022-12-04T13:26:47.792Z,2.00
2022-12-04T13:29:31.881Z,2.00
2022-12-04T13:32:32.558Z,2.10
2022-12-04T13:35:20.024Z,2.10
2022-12-04T13:38:01.087Z,2.00
2022-12-04T13:40:41.838Z,2.10
2022-12-04T13:43:21.731Z,2.10
2022-12-04T13:45:53.677Z,2.10
2022-12-04T13:48:31.725Z,2.20
2022-12-04T13:51:09.307Z,2.20
2022-12-04T13:53:40.449Z,2.30
2022-12-04T13:56:25.258Z,2.40
2022-12-04T13:59:02.416Z,2.40
2022-12-04T14:01:37.162Z,2.40
2022-12-04T14:04:07.910Z,2.40
2022-12-04T14:06:40.491Z,2.40
2022-12-04T14:09:19.691Z,2.30
2022-12-04T14:11:59.498Z,2.30
2022-12-04T14:14:31.510Z,2.30
2022-12-04T14:17:01.628Z,2.30
2022-12-04T14:19:35.431Z,2.30
2022-12-04T14:22:06.070Z,2.30
2022-12-04T14:24:37.398Z,2.30
2022-12-04T14:27:34.892Z,2.20
2022-12-04T14:30:04.626Z,2.20
2022-12-04T14:32:36.595Z,2.30
2022-12-04T14:35:07.969Z,2.20
2022-12-04T14:37:41.422Z,2.20
2022-12-04T14:40:21.038Z,2.20
2022-12-04T14:42:51.435Z,2.20
2022-12-04T14:45:30.952Z,2.20
2022-12-04T14:48:14.471Z,2.20
2022-12-04T14:50:52.025Z,2.20
2022-12-04T14:53:33.229Z,2.20
2022-12-04T14:56:16.526Z,2.20
2022-12-04T14:58:47.992Z,2.20
2022-12-04T15:01:29.011Z,2.20
2022-12-04T15:04:05.354Z,2.20
2022-12-04T15:06:35.646Z,2.20
2022-12-04T15:09:23.628Z,2.20
2022-12-04T15:12:07.897Z,2.20
2022-12-04T15:15:11.996Z,2.20
2022-12-04T15:17:40.591Z,2.20
2022-12-04T15:20:19.150Z,2.20
2022-12-04T15:22:49.605Z,2.20
2022-12-04T15:25:21.556Z,2.30
2022-12-04T15:27:52.942Z,2.30
2022-12-04T15:30:25.517Z,2.20
2022-12-04T15:32:55.288Z,2.20
2022-12-04T15:35:27.275Z,2.20
2022-12-04T15:37:57.642Z,2.20
2022-12-04T15:40:32.394Z,2.20
2022-12-04T15:43:17.583Z,2.10
2022-12-04T15:45:46.747Z,2.10
2022-12-04T15:48:26.036Z,2.10
2022-12-04T15:51:00.378Z,2.10
2022-12-04T15:53:34.267Z,2.10
2022-12-04T15:56:06.023Z,2.10
2022-12-04T15:58:37.820Z,2.10
2022-12-04T16:01:10.840Z,2.00
2022-12-04T16:03:48.078Z,2.00
2022-12-04T16:06:20.241Z,2.00
2022-12-04T16:08:54.222Z,2.10
2022-12-04T16:11:42.340Z,2.00
2022-12-04T16:14:18.916Z,2.80
2022-12-04T16:16:52.660Z,2.00
2022-12-04T16:19:29.508Z,2.10
2022-12-04T16:22:01.788Z,2.10
2022-12-04T16:24:33.911Z,2.10
2022-12-04T16:27:04.463Z,2.10
2022-12-04T16:29:33.065Z,2.10
2022-12-04T16:32:04.048Z,2.10
2022-12-04T16:34:34.581Z,2.10
2022-12-04T16:37:03.867Z,2.10
2022-12-04T16:39:39.850Z,2.10
2022-12-04T16:42:16.696Z,2.10
2022-12-04T16:44:45.384Z,2.10
2022-12-04T16:47:14.884Z,2.10
2022-12-04T16:49:44.446Z,2.10
2022-12-04T16:52:13.456Z,2.10
2022-12-04T16:54:43.288Z,2.10
2022-12-04T16:57:11.748Z,2.10
2022-12-04T16:59:41.324Z,2.10
2022-12-04T17:02:18.623Z,2.20
2022-12-04T17:04:47.168Z,2.20
2022-12-04T17:07:16.360Z,2.10
2022-12-04T17:09:49.960Z,2.10
2022-12-04T17:12:18.770Z,2.20
2022-12-04T17:14:47.427Z,2.20
2022-12-04T17:17:18.694Z,2.20
2022-12-04T17:19:48.344Z,2.20
2022-12-04T17:22:21.306Z,2.20
2022-12-04T17:24:55.972Z,2.20
2022-12-04T17:27:26.217Z,2.20
2022-12-04T17:29:57.490Z,2.20
2022-12-04T17:32:27.865Z,2.30
2022-12-04T17:34:57.930Z,2.20
2022-12-04T17:37:29.092Z,2.20
2022-12-04T17:39:59.384Z,2.20
2022-12-04T17:42:31.020Z,2.30
2022-12-04T17:44:59.820Z,2.20
2022-12-04T17:47:36.144Z,2.30
2022-12-04T17:50:05.310Z,2.30
2022-12-04T17:52:36.643Z,2.20
2022-12-04T17:55:08.946Z,2.30
2022-12-04T17:57:37.687Z,2.20
2022-12-04T18:00:09.542Z,2.30
2022-12-04T18:02:38.276Z,2.30
2022-12-04T18:05:07.092Z,2.20
2022-12-04T18:07:35.665Z,2.20
2022-12-04T18:10:06.318Z,2.20
2022-12-04T18:12:34.869Z,2.30
2022-12-04T18:15:03.361Z,2.30
2022-12-04T18:17:31.724Z,2.30
2022-12-04T18:20:04.463Z,2.30
2022-12-04T18:22:33.853Z,2.30
2022-12-04T18:25:02.604Z,2.40
2022-12-04T18:27:32.509Z,2.40
2022-12-04T18:30:02.092Z,2.40
2022-12-04T18:32:33.683Z,2.40
2022-12-04T18:35:08.397Z,2.40
2022-12-04T18:37:42.635Z,2.40
2022-12-04T18:40:14.782Z,2.40
2022-12-04T18:42:44.736Z,2.40
2022-12-04T18:45:13.899Z,2.40
2022-12-04T18:47:42.327Z,2.40
2022-12-04T18:50:11.378Z,2.40
2022-12-04T18:52:43.587Z,2.40
2022-12-04T18:55:12.862Z,2.40
2022-12-04T18:57:41.526Z,2.40
2022-12-04T19:00:13.708Z,2.50
2022-12-04T19:02:47.124Z,2.50
2022-12-04T19:05:16.138Z,2.50
2022-12-04T19:07:45.455Z,2.40
2022-12-04T19:10:16.650Z,2.50
2022-12-04T19:12:46.225Z,2.50
2022-12-04T19:15:17.017Z,2.50
2022-12-04T19:17:46.608Z,2.50
2022-12-04T19:20:18.364Z,2.50
2022-12-04T19:22:46.912Z,2.50
2022-12-04T19:25:16.370Z,2.50
2022-12-04T19:27:45.079Z,2.50
2022-12-04T19:30:14.416Z,2.50
2022-12-04T19:32:45.384Z,2.50
2022-12-04T19:35:13.951Z,2.50
2022-12-04T19:37:44.811Z,2.50
2022-12-04T19:40:17.361Z,2.50
2022-12-04T19:42:46.773Z,2.60
2022-12-04T19:45:15.464Z,2.60
2022-12-04T19:47:47.392Z,2.60
2022-12-04T19:50:15.987Z,2.60
2022-12-04T19:52:45.843Z,2.50
2022-12-04T19:55:20.322Z,2.60
2022-12-04T19:57:49.768Z,2.60
2022-12-04T20:00:19.140Z,2.60
2022-12-04T20:02:49.011Z,2.60
2022-12-04T20:05:17.849Z,2.60
2022-12-04T20:07:46.342Z,2.60
2022-12-04T20:10:16.800Z,2.70
2022-12-04T20:12:45.250Z,3.40
2022-12-04T20:15:13.820Z,2.70
2022-12-04T20:17:42.205Z,2.70
2022-12-04T20:20:12.666Z,2.70
2022-12-04T20:22:41.104Z,2.70
2022-12-04T20:25:10.219Z,4.20
2022-12-04T20:27:38.883Z,2.80
2022-12-04T20:30:08.897Z,2.70
2022-12-04T20:32:37.431Z,2.70
2022-12-04T20:35:07.485Z,2.70
2022-12-04T20:37:38.177Z,2.70
2022-12-04T20:40:08.790Z,2.80
2022-12-04T20:42:37.271Z,2.70
2022-12-04T20:45:07.040Z,2.80
2022-12-04T20:47:36.857Z,2.80
2022-12-04T20:50:06.508Z,2.80
2022-12-04T20:52:36.522Z,2.80
2022-12-04T20:55:06.685Z,2.80
2022-12-04T20:57:36.192Z,2.70
2022-12-04T21:00:06.909Z,2.80
2022-12-04T21:02:39.608Z,2.70
2022-12-04T21:05:10.573Z,2.80
2022-12-04T21:07:41.408Z,2.80
2022-12-04T21:10:11.908Z,3.20
2022-12-04T21:12:58.144Z,4.40
2022-12-04T21:15:44.544Z,2.80
2022-12-04T21:18:13.487Z,2.80
2022-12-04T21:20:41.904Z,2.80
2022-12-04T21:23:11.756Z,2.80
2022-12-04T21:25:40.250Z,2.90
2022-12-04T21:28:09.793Z,2.90
2022-12-04T21:30:38.257Z,2.90
2022-12-04T21:33:06.867Z,2.90
2022-12-04T21:35:35.492Z,2.80
2022-12-04T21:38:04.744Z,2.80
2022-12-04T21:40:41.983Z,2.80
2022-12-04T21:43:12.662Z,2.80
2022-12-04T21:45:41.141Z,2.80
2022-12-04T21:48:11.555Z,2.80
2022-12-04T21:50:39.978Z,2.80
2022-12-04T21:53:08.992Z,1.90
2022-12-04T21:55:39.199Z,2.70
2022-12-04T21:58:07.908Z,2.70
2022-12-04T22:00:36.408Z,2.70
2022-12-04T22:03:06.242Z,2.70
2022-12-04T22:05:35.188Z,2.80
2022-12-04T22:08:04.777Z,2.70
2022-12-04T22:10:35.788Z,2.70
2022-12-04T22:13:05.622Z,2.70
2022-12-04T22:15:39.745Z,2.70
2022-12-04T22:18:09.770Z,2.70
2022-12-04T22:20:41.103Z,2.70
2022-12-04T22:23:10.860Z,2.70
2022-12-04T22:25:39.661Z,2.70
2022-12-04T22:28:10.682Z,2.70
2022-12-04T22:30:39.095Z,2.70
2022-12-04T22:33:08.691Z,2.70
2022-12-04T22:35:37.592Z,2.70
2022-12-04T22:38:06.338Z,2.70
2022-12-04T22:40:34.986Z,2.70
2022-12-04T22:43:03.851Z,2.60
2022-12-04T22:45:33.670Z,2.70
2022-12-04T22:48:02.577Z,2.60
2022-12-04T22:50:31.111Z,2.70
2022-12-04T22:52:59.829Z,2.70
2022-12-04T22:55:29.012Z,2.70
2022-12-04T22:57:57.606Z,2.70
2022-12-04T23:00:27.030Z,2.70
2022-12-04T23:02:56.983Z,2.70
2022-12-04T23:05:25.682Z,2.70
2022-12-04T23:07:54.957Z,2.50
2022-12-04T23:10:23.573Z,2.60
2022-12-04T23:12:51.960Z,2.70
2022-12-04T23:15:20.483Z,2.70
2022-12-04T23:17:48.926Z,2.70
2022-12-04T23:20:18.879Z,2.60
2022-12-04T23:22:48.194Z,2.70
2022-12-04T23:25:16.683Z,2.70
2022-12-04T23:27:46.639Z,2.70
2022-12-04T23:30:15.720Z,2.70
2022-12-04T23:32:45.880Z,2.70
2022-12-04T23:35:14.511Z,2.70
2022-12-04T23:37:45.657Z,2.70
2022-12-04T23:40:16.118Z,2.70
2022-12-04T23:42:44.919Z,2.70
2022-12-04T23:45:13.682Z,2.70
2022-12-04T23:47:42.324Z,2.70
